sensor_id;sensor_type;location;lat;lon;timestamp;temperature;humidity
42201;DHT22;27869;51.442;7.540;2022-07-15T00:02:10;15.90;99.90
42201;DHT22;27869;51.442;7.540;2022-07-15T00:04:38;15.80;99.90
42201;DHT22;27869;51.442;7.540;2022-07-15T00:07:05;15.70;99.90
42201;DHT22;27869;51.442;7.540;2022-07-15T00:09:34;15.70;99.90
42201;DHT22;27869;51.442;7.540;2022-07-15T00:12:27;15.70;99.90
42201;DHT22;27869;51.442;7.540;2022-07-15T00:14:54;15.60;99.90
42201;DHT22;27869;51.442;7.540;2022-07-15T00:17:20;15.60;99.90
42201;DHT22;27869;51.442;7.540;2022-07-15T00:19:47;15.60;99.90
42201;DHT22;27869;51.442;7.540;2022-07-15T00:22:14;15.50;99.90
42201;DHT22;27869;51.442;7.540;2022-07-15T00:24:42;15.50;99.90
42201;DHT22;27869;51.442;7.540;2022-07-15T00:27:09;15.50;99.90
42201;DHT22;27869;51.442;7.540;2022-07-15T00:29:36;15.50;99.90
42201;DHT22;27869;51.442;7.540;2022-07-15T00:32:04;15.50;99.90
42201;DHT22;27869;51.442;7.540;2022-07-15T00:34:31;15.50;99.90
42201;DHT22;27869;51.442;7.540;2022-07-15T00:36:58;15.50;99.90
42201;DHT22;27869;51.442;7.540;2022-07-15T00:39:25;15.50;99.90
42201;DHT22;27869;51.442;7.540;2022-07-15T00:41:53;15.50;99.90
42201;DHT22;27869;51.442;7.540;2022-07-15T00:44:20;15.50;99.90
42201;DHT22;27869;51.442;7.540;2022-07-15T00:46:47;15.50;99.90
42201;DHT22;27869;51.442;7.540;2022-07-15T00:49:14;15.50;99.90
42201;DHT22;27869;51.442;7.540;2022-07-15T00:51:43;15.50;99.90
42201;DHT22;27869;51.442;7.540;2022-07-15T00:54:12;15.40;99.90
42201;DHT22;27869;51.442;7.540;2022-07-15T00:56:42;15.40;99.90
42201;DHT22;27869;51.442;7.540;2022-07-15T00:59:12;15.50;99.90
42201;DHT22;27869;51.442;7.540;2022-07-15T01:01:40;15.40;99.90
42201;DHT22;27869;51.442;7.540;2022-07-15T01:04:09;15.40;99.90
42201;DHT22;27869;51.442;7.540;2022-07-15T01:06:39;15.40;99.90
42201;DHT22;27869;51.442;7.540;2022-07-15T01:09:06;15.40;99.90
42201;DHT22;27869;51.442;7.540;2022-07-15T01:11:33;15.40;99.90
42201;DHT22;27869;51.442;7.540;2022-07-15T01:14:01;15.40;99.90
42201;DHT22;27869;51.442;7.540;2022-07-15T01:16:29;15.40;99.90
42201;DHT22;27869;51.442;7.540;2022-07-15T01:18:56;15.40;99.90
42201;DHT22;27869;51.442;7.540;2022-07-15T01:21:25;15.40;99.90
42201;DHT22;27869;51.442;7.540;2022-07-15T01:23:52;15.40;99.90
42201;DHT22;27869;51.442;7.540;2022-07-15T01:26:18;15.40;99.90
42201;DHT22;27869;51.442;7.540;2022-07-15T01:28:45;15.40;99.90
42201;DHT22;27869;51.442;7.540;2022-07-15T01:31:12;15.40;99.90
42201;DHT22;27869;51.442;7.540;2022-07-15T01:33:39;15.30;99.90
42201;DHT22;27869;51.442;7.540;2022-07-15T01:36:07;15.30;99.90
42201;DHT22;27869;51.442;7.540;2022-07-15T01:38:35;15.30;99.90
42201;DHT22;27869;51.442;7.540;2022-07-15T01:41:03;15.30;99.90
42201;DHT22;27869;51.442;7.540;2022-07-15T01:43:30;15.20;99.90
42201;DHT22;27869;51.442;7.540;2022-07-15T01:45:57;15.20;99.90
42201;DHT22;27869;51.442;7.540;2022-07-15T01:48:24;15.20;99.90
42201;DHT22;27869;51.442;7.540;2022-07-15T01:51:09;15.30;99.90
42201;DHT22;27869;51.442;7.540;2022-07-15T01:53:38;15.20;99.90
42201;DHT22;27869;51.442;7.540;2022-07-15T01:56:06;15.20;99.90
42201;DHT22;27869;51.442;7.540;2022-07-15T01:58:33;15.20;99.90
42201;DHT22;27869;51.442;7.540;2022-07-15T02:01:00;15.20;99.90
42201;DHT22;27869;51.442;7.540;2022-07-15T02:03:27;15.10;99.90
42201;DHT22;27869;51.442;7.540;2022-07-15T02:05:54;15.20;99.90
42201;DHT22;27869;51.442;7.540;2022-07-15T02:08:21;15.20;99.90
42201;DHT22;27869;51.442;7.540;2022-07-15T02:10:49;15.10;99.90
42201;DHT22;27869;51.442;7.540;2022-07-15T02:13:16;15.10;99.90
42201;DHT22;27869;51.442;7.540;2022-07-15T02:15:43;15.10;99.90
42201;DHT22;27869;51.442;7.540;2022-07-15T02:18:10;15.10;99.90
42201;DHT22;27869;51.442;7.540;2022-07-15T02:20:37;15.10;99.90
42201;DHT22;27869;51.442;7.540;2022-07-15T02:23:04;15.10;99.90
42201;DHT22;27869;51.442;7.540;2022-07-15T02:25:33;15.10;99.90
42201;DHT22;27869;51.442;7.540;2022-07-15T02:28:04;15.00;99.90
42201;DHT22;27869;51.442;7.540;2022-07-15T02:30:34;15.10;99.90
42201;DHT22;27869;51.442;7.540;2022-07-15T02:33:01;15.00;99.90
42201;DHT22;27869;51.442;7.540;2022-07-15T02:35:29;15.00;99.90
42201;DHT22;27869;51.442;7.540;2022-07-15T02:37:57;15.00;99.90
42201;DHT22;27869;51.442;7.540;2022-07-15T02:40:25;15.00;99.90
42201;DHT22;27869;51.442;7.540;2022-07-15T02:42:54;15.10;99.90
42201;DHT22;27869;51.442;7.540;2022-07-15T02:45:24;15.10;99.90
42201;DHT22;27869;51.442;7.540;2022-07-15T02:47:52;15.10;99.90
42201;DHT22;27869;51.442;7.540;2022-07-15T02:50:20;15.10;99.90
42201;DHT22;27869;51.442;7.540;2022-07-15T02:52:47;15.00;99.90
42201;DHT22;27869;51.442;7.540;2022-07-15T02:55:15;15.00;99.90
42201;DHT22;27869;51.442;7.540;2022-07-15T02:57:42;15.00;99.90
42201;DHT22;27869;51.442;7.540;2022-07-15T03:00:11;15.00;99.90
42201;DHT22;27869;51.442;7.540;2022-07-15T03:02:40;15.00;99.90
42201;DHT22;27869;51.442;7.540;2022-07-15T03:05:08;15.00;99.90
42201;DHT22;27869;51.442;7.540;2022-07-15T03:07:35;15.00;99.90
42201;DHT22;27869;51.442;7.540;2022-07-15T03:10:03;15.00;99.90
42201;DHT22;27869;51.442;7.540;2022-07-15T03:12:30;14.90;99.90
42201;DHT22;27869;51.442;7.540;2022-07-15T03:14:57;14.90;99.90
42201;DHT22;27869;51.442;7.540;2022-07-15T03:17:24;14.90;99.90
42201;DHT22;27869;51.442;7.540;2022-07-15T03:19:52;14.90;99.90
42201;DHT22;27869;51.442;7.540;2022-07-15T03:22:20;14.90;99.90
42201;DHT22;27869;51.442;7.540;2022-07-15T03:24:47;14.80;99.90
42201;DHT22;27869;51.442;7.540;2022-07-15T03:27:15;14.80;99.90
42201;DHT22;27869;51.442;7.540;2022-07-15T03:29:42;14.80;99.90
42201;DHT22;27869;51.442;7.540;2022-07-15T03:32:09;14.80;99.90
42201;DHT22;27869;51.442;7.540;2022-07-15T03:34:37;14.70;99.90
42201;DHT22;27869;51.442;7.540;2022-07-15T03:37:05;14.70;99.90
42201;DHT22;27869;51.442;7.540;2022-07-15T03:39:32;14.60;99.90
42201;DHT22;27869;51.442;7.540;2022-07-15T03:41:59;14.60;99.90
42201;DHT22;27869;51.442;7.540;2022-07-15T03:44:26;14.50;99.90
42201;DHT22;27869;51.442;7.540;2022-07-15T03:46:53;14.50;99.90
42201;DHT22;27869;51.442;7.540;2022-07-15T03:49:20;14.50;99.90
42201;DHT22;27869;51.442;7.540;2022-07-15T03:51:47;14.50;99.90
42201;DHT22;27869;51.442;7.540;2022-07-15T03:54:16;14.40;99.90
42201;DHT22;27869;51.442;7.540;2022-07-15T03:56:43;14.40;99.90
42201;DHT22;27869;51.442;7.540;2022-07-15T03:59:13;14.40;99.90
42201;DHT22;27869;51.442;7.540;2022-07-15T04:01:42;14.30;99.90
42201;DHT22;27869;51.442;7.540;2022-07-15T04:04:09;14.30;99.90
42201;DHT22;27869;51.442;7.540;2022-07-15T04:06:37;14.30;99.90
42201;DHT22;27869;51.442;7.540;2022-07-15T04:09:04;14.30;99.90
42201;DHT22;27869;51.442;7.540;2022-07-15T04:11:32;14.30;99.90
42201;DHT22;27869;51.442;7.540;2022-07-15T04:13:59;14.30;99.90
42201;DHT22;27869;51.442;7.540;2022-07-15T04:16:26;14.20;99.90
42201;DHT22;27869;51.442;7.540;2022-07-15T04:18:54;14.20;99.90
42201;DHT22;27869;51.442;7.540;2022-07-15T04:21:21;14.20;99.90
42201;DHT22;27869;51.442;7.540;2022-07-15T04:23:48;14.20;99.90
42201;DHT22;27869;51.442;7.540;2022-07-15T04:26:15;14.10;99.90
42201;DHT22;27869;51.442;7.540;2022-07-15T04:28:43;14.10;99.90
42201;DHT22;27869;51.442;7.540;2022-07-15T04:31:10;14.10;99.90
42201;DHT22;27869;51.442;7.540;2022-07-15T04:33:37;14.10;99.90
42201;DHT22;27869;51.442;7.540;2022-07-15T04:36:04;14.00;99.90
42201;DHT22;27869;51.442;7.540;2022-07-15T04:38:31;14.00;99.90
42201;DHT22;27869;51.442;7.540;2022-07-15T04:40:58;14.00;99.90
42201;DHT22;27869;51.442;7.540;2022-07-15T04:43:25;14.00;99.90
42201;DHT22;27869;51.442;7.540;2022-07-15T04:45:53;14.00;99.90
42201;DHT22;27869;51.442;7.540;2022-07-15T04:48:20;14.00;99.90
42201;DHT22;27869;51.442;7.540;2022-07-15T04:51:05;14.00;99.90
42201;DHT22;27869;51.442;7.540;2022-07-15T04:53:32;14.00;99.90
42201;DHT22;27869;51.442;7.540;2022-07-15T04:55:59;14.00;99.90
42201;DHT22;27869;51.442;7.540;2022-07-15T04:58:26;14.00;99.90
42201;DHT22;27869;51.442;7.540;2022-07-15T05:00:54;14.00;99.90
42201;DHT22;27869;51.442;7.540;2022-07-15T05:03:21;14.00;99.90
42201;DHT22;27869;51.442;7.540;2022-07-15T05:05:49;14.10;99.90
42201;DHT22;27869;51.442;7.540;2022-07-15T05:08:16;14.10;99.90
42201;DHT22;27869;51.442;7.540;2022-07-15T05:10:43;14.10;99.90
42201;DHT22;27869;51.442;7.540;2022-07-15T05:13:10;14.10;99.90
42201;DHT22;27869;51.442;7.540;2022-07-15T05:15:37;14.20;99.90
42201;DHT22;27869;51.442;7.540;2022-07-15T05:18:05;14.20;99.90
42201;DHT22;27869;51.442;7.540;2022-07-15T05:20:32;14.20;99.90
42201;DHT22;27869;51.442;7.540;2022-07-15T05:22:59;14.30;99.90
42201;DHT22;27869;51.442;7.540;2022-07-15T05:25:26;14.30;99.90
42201;DHT22;27869;51.442;7.540;2022-07-15T05:27:53;14.30;99.90
42201;DHT22;27869;51.442;7.540;2022-07-15T05:30:20;14.30;99.90
42201;DHT22;27869;51.442;7.540;2022-07-15T05:32:47;14.40;99.90
42201;DHT22;27869;51.442;7.540;2022-07-15T05:35:16;14.40;99.90
42201;DHT22;27869;51.442;7.540;2022-07-15T05:37:43;14.40;99.90
42201;DHT22;27869;51.442;7.540;2022-07-15T05:40:11;14.40;99.90
42201;DHT22;27869;51.442;7.540;2022-07-15T05:42:40;14.50;99.90
42201;DHT22;27869;51.442;7.540;2022-07-15T05:45:08;14.50;99.90
42201;DHT22;27869;51.442;7.540;2022-07-15T05:47:35;14.60;99.90
42201;DHT22;27869;51.442;7.540;2022-07-15T05:50:03;14.70;99.90
42201;DHT22;27869;51.442;7.540;2022-07-15T05:52:31;14.70;99.90
42201;DHT22;27869;51.442;7.540;2022-07-15T05:54:58;14.70;99.90
42201;DHT22;27869;51.442;7.540;2022-07-15T05:57:26;14.80;99.90
42201;DHT22;27869;51.442;7.540;2022-07-15T05:59:53;14.80;99.90
42201;DHT22;27869;51.442;7.540;2022-07-15T06:02:20;14.90;99.90
42201;DHT22;27869;51.442;7.540;2022-07-15T06:04:47;15.00;99.90
42201;DHT22;27869;51.442;7.540;2022-07-15T06:07:14;15.00;99.90
42201;DHT22;27869;51.442;7.540;2022-07-15T06:09:42;15.10;99.90
42201;DHT22;27869;51.442;7.540;2022-07-15T06:12:09;15.20;99.90
42201;DHT22;27869;51.442;7.540;2022-07-15T06:14:36;15.30;99.90
42201;DHT22;27869;51.442;7.540;2022-07-15T06:17:03;15.30;99.90
42201;DHT22;27869;51.442;7.540;2022-07-15T06:19:30;15.40;99.90
42201;DHT22;27869;51.442;7.540;2022-07-15T06:21:56;15.50;99.90
42201;DHT22;27869;51.442;7.540;2022-07-15T06:24:24;15.50;99.90
42201;DHT22;27869;51.442;7.540;2022-07-15T06:26:53;15.60;99.90
42201;DHT22;27869;51.442;7.540;2022-07-15T06:29:20;15.70;99.90
42201;DHT22;27869;51.442;7.540;2022-07-15T06:31:47;15.80;99.90
42201;DHT22;27869;51.442;7.540;2022-07-15T06:34:14;15.80;99.90
42201;DHT22;27869;51.442;7.540;2022-07-15T06:36:41;15.90;99.90
42201;DHT22;27869;51.442;7.540;2022-07-15T06:39:08;16.00;99.90
42201;DHT22;27869;51.442;7.540;2022-07-15T06:41:36;16.20;99.90
42201;DHT22;27869;51.442;7.540;2022-07-15T06:44:05;16.30;99.90
42201;DHT22;27869;51.442;7.540;2022-07-15T06:46:31;16.50;99.90
42201;DHT22;27869;51.442;7.540;2022-07-15T06:48:58;16.60;99.90
42201;DHT22;27869;51.442;7.540;2022-07-15T06:51:27;16.70;99.90
42201;DHT22;27869;51.442;7.540;2022-07-15T06:53:54;16.80;99.90
42201;DHT22;27869;51.442;7.540;2022-07-15T06:56:21;17.00;99.90
42201;DHT22;27869;51.442;7.540;2022-07-15T06:58:47;17.10;99.90
42201;DHT22;27869;51.442;7.540;2022-07-15T07:01:16;17.20;99.90
42201;DHT22;27869;51.442;7.540;2022-07-15T07:03:43;17.30;99.90
42201;DHT22;27869;51.442;7.540;2022-07-15T07:06:11;17.50;99.90
42201;DHT22;27869;51.442;7.540;2022-07-15T07:08:38;17.60;99.90
42201;DHT22;27869;51.442;7.540;2022-07-15T07:11:05;17.70;99.90
42201;DHT22;27869;51.442;7.540;2022-07-15T07:13:32;17.80;99.90
42201;DHT22;27869;51.442;7.540;2022-07-15T07:15:59;18.00;99.90
42201;DHT22;27869;51.442;7.540;2022-07-15T07:18:27;18.10;99.90
42201;DHT22;27869;51.442;7.540;2022-07-15T07:20:54;18.20;99.90
42201;DHT22;27869;51.442;7.540;2022-07-15T07:23:22;18.40;99.90
42201;DHT22;27869;51.442;7.540;2022-07-15T07:25:52;18.40;99.90
42201;DHT22;27869;51.442;7.540;2022-07-15T07:28:19;18.50;99.90
42201;DHT22;27869;51.442;7.540;2022-07-15T07:30:46;18.50;99.90
42201;DHT22;27869;51.442;7.540;2022-07-15T07:33:15;18.60;99.90
42201;DHT22;27869;51.442;7.540;2022-07-15T07:35:43;18.70;99.90
42201;DHT22;27869;51.442;7.540;2022-07-15T07:38:11;18.70;99.90
42201;DHT22;27869;51.442;7.540;2022-07-15T07:40:38;18.70;99.90
42201;DHT22;27869;51.442;7.540;2022-07-15T07:43:05;18.90;99.90
42201;DHT22;27869;51.442;7.540;2022-07-15T07:45:32;19.10;99.90
42201;DHT22;27869;51.442;7.540;2022-07-15T07:47:59;19.20;99.90
42201;DHT22;27869;51.442;7.540;2022-07-15T07:50:27;19.30;99.90
42201;DHT22;27869;51.442;7.540;2022-07-15T07:52:55;19.40;99.90
42201;DHT22;27869;51.442;7.540;2022-07-15T07:55:23;19.60;99.90
42201;DHT22;27869;51.442;7.540;2022-07-15T07:57:51;19.70;99.90
42201;DHT22;27869;51.442;7.540;2022-07-15T08:00:18;19.80;99.90
42201;DHT22;27869;51.442;7.540;2022-07-15T08:02:45;19.80;99.50
42201;DHT22;27869;51.442;7.540;2022-07-15T08:05:13;19.80;99.20
42201;DHT22;27869;51.442;7.540;2022-07-15T08:07:41;19.80;99.10
42201;DHT22;27869;51.442;7.540;2022-07-15T08:10:11;19.90;99.10
42201;DHT22;27869;51.442;7.540;2022-07-15T08:12:38;20.00;97.40
42201;DHT22;27869;51.442;7.540;2022-07-15T08:15:07;20.10;98.60
42201;DHT22;27869;51.442;7.540;2022-07-15T08:17:36;20.10;97.20
42201;DHT22;27869;51.442;7.540;2022-07-15T08:20:04;20.20;97.40
42201;DHT22;27869;51.442;7.540;2022-07-15T08:22:31;20.20;97.00
42201;DHT22;27869;51.442;7.540;2022-07-15T08:24:58;20.10;97.90
42201;DHT22;27869;51.442;7.540;2022-07-15T08:27:26;20.20;97.00
42201;DHT22;27869;51.442;7.540;2022-07-15T08:29:53;20.10;96.50
42201;DHT22;27869;51.442;7.540;2022-07-15T08:32:21;20.00;96.10
42201;DHT22;27869;51.442;7.540;2022-07-15T08:34:48;19.90;96.80
42201;DHT22;27869;51.442;7.540;2022-07-15T08:37:15;19.80;96.90
42201;DHT22;27869;51.442;7.540;2022-07-15T08:39:42;19.80;96.80
42201;DHT22;27869;51.442;7.540;2022-07-15T08:42:09;19.70;96.60
42201;DHT22;27869;51.442;7.540;2022-07-15T08:44:37;19.70;97.20
42201;DHT22;27869;51.442;7.540;2022-07-15T08:47:05;19.60;97.20
42201;DHT22;27869;51.442;7.540;2022-07-15T08:49:35;19.50;96.80
42201;DHT22;27869;51.442;7.540;2022-07-15T08:52:05;19.50;97.20
42201;DHT22;27869;51.442;7.540;2022-07-15T08:54:32;19.50;97.30
42201;DHT22;27869;51.442;7.540;2022-07-15T08:56:59;19.50;97.70
42201;DHT22;27869;51.442;7.540;2022-07-15T08:59:29;19.60;97.50
42201;DHT22;27869;51.442;7.540;2022-07-15T09:01:57;19.60;97.50
42201;DHT22;27869;51.442;7.540;2022-07-15T09:04:24;19.50;97.60
42201;DHT22;27869;51.442;7.540;2022-07-15T09:06:51;19.70;97.90
42201;DHT22;27869;51.442;7.540;2022-07-15T09:09:29;19.90;97.90
42201;DHT22;27869;51.442;7.540;2022-07-15T09:12:00;20.30;96.70
42201;DHT22;27869;51.442;7.540;2022-07-15T09:14:28;20.60;96.60
42201;DHT22;27869;51.442;7.540;2022-07-15T09:17:18;20.70;95.90
42201;DHT22;27869;51.442;7.540;2022-07-15T09:19:57;20.80;94.20
42201;DHT22;27869;51.442;7.540;2022-07-15T09:22:25;20.80;95.00
42201;DHT22;27869;51.442;7.540;2022-07-15T09:25:02;20.90;95.20
42201;DHT22;27869;51.442;7.540;2022-07-15T09:27:31;21.00;95.60
42201;DHT22;27869;51.442;7.540;2022-07-15T09:30:16;21.10;95.10
42201;DHT22;27869;51.442;7.540;2022-07-15T09:33:03;21.40;95.20
42201;DHT22;27869;51.442;7.540;2022-07-15T09:35:48;21.60;94.90
42201;DHT22;27869;51.442;7.540;2022-07-15T09:38:36;21.70;94.40
42201;DHT22;27869;51.442;7.540;2022-07-15T09:41:07;21.60;93.50
42201;DHT22;27869;51.442;7.540;2022-07-15T09:43:53;21.40;93.80
42201;DHT22;27869;51.442;7.540;2022-07-15T09:46:22;21.30;92.60
42201;DHT22;27869;51.442;7.540;2022-07-15T09:48:51;21.20;94.20
42201;DHT22;27869;51.442;7.540;2022-07-15T09:51:19;21.10;93.40
42201;DHT22;27869;51.442;7.540;2022-07-15T09:53:46;21.10;93.10
42201;DHT22;27869;51.442;7.540;2022-07-15T09:56:16;21.20;93.70
42201;DHT22;27869;51.442;7.540;2022-07-15T09:58:47;21.50;92.90
42201;DHT22;27869;51.442;7.540;2022-07-15T10:01:14;21.60;92.70
42201;DHT22;27869;51.442;7.540;2022-07-15T10:03:41;21.70;92.60
42201;DHT22;27869;51.442;7.540;2022-07-15T10:06:13;21.80;91.20
42201;DHT22;27869;51.442;7.540;2022-07-15T10:08:46;22.00;90.70
42201;DHT22;27869;51.442;7.540;2022-07-15T10:11:14;21.90;91.70
42201;DHT22;27869;51.442;7.540;2022-07-15T10:20:01;22.50;89.00
42201;DHT22;27869;51.442;7.540;2022-07-15T10:22:42;22.60;87.00
42201;DHT22;27869;51.442;7.540;2022-07-15T10:25:27;22.70;89.40
42201;DHT22;27869;51.442;7.540;2022-07-15T10:28:03;22.80;89.50
42201;DHT22;27869;51.442;7.540;2022-07-15T10:30:31;22.70;88.20
42201;DHT22;27869;51.442;7.540;2022-07-15T10:33:16;22.60;90.10
42201;DHT22;27869;51.442;7.540;2022-07-15T10:35:46;22.50;86.40
42201;DHT22;27869;51.442;7.540;2022-07-15T10:38:26;22.40;89.80
42201;DHT22;27869;51.442;7.540;2022-07-15T10:41:11;22.30;89.70
42201;DHT22;27869;51.442;7.540;2022-07-15T10:43:45;22.30;87.50
42201;DHT22;27869;51.442;7.540;2022-07-15T10:46:24;22.20;88.90
42201;DHT22;27869;51.442;7.540;2022-07-15T10:48:53;22.20;87.10
42201;DHT22;27869;51.442;7.540;2022-07-15T10:51:44;22.10;87.80
42201;DHT22;27869;51.442;7.540;2022-07-15T10:54:47;22.20;86.20
42201;DHT22;27869;51.442;7.540;2022-07-15T10:57:15;22.30;84.50
42201;DHT22;27869;51.442;7.540;2022-07-15T10:59:56;22.30;85.50
42201;DHT22;27869;51.442;7.540;2022-07-15T11:02:24;22.20;83.50
42201;DHT22;27869;51.442;7.540;2022-07-15T11:04:54;22.10;87.10
42201;DHT22;27869;51.442;7.540;2022-07-15T11:07:40;22.00;86.80
42201;DHT22;27869;51.442;7.540;2022-07-15T11:10:22;21.90;88.30
42201;DHT22;27869;51.442;7.540;2022-07-15T11:13:01;21.80;84.60
42201;DHT22;27869;51.442;7.540;2022-07-15T11:15:28;21.80;85.90
42201;DHT22;27869;51.442;7.540;2022-07-15T11:17:56;21.80;86.70
42201;DHT22;27869;51.442;7.540;2022-07-15T11:20:26;21.80;86.20
42201;DHT22;27869;51.442;7.540;2022-07-15T11:22:56;21.90;85.20
42201;DHT22;27869;51.442;7.540;2022-07-15T11:25:26;22.00;86.10
42201;DHT22;27869;51.442;7.540;2022-07-15T11:27:58;22.10;86.70
42201;DHT22;27869;51.442;7.540;2022-07-15T11:30:27;22.00;84.30
42201;DHT22;27869;51.442;7.540;2022-07-15T11:32:55;22.00;85.60
42201;DHT22;27869;51.442;7.540;2022-07-15T11:35:22;22.00;84.90
42201;DHT22;27869;51.442;7.540;2022-07-15T11:38:01;21.90;83.70
42201;DHT22;27869;51.442;7.540;2022-07-15T11:40:30;21.90;85.40
42201;DHT22;27869;51.442;7.540;2022-07-15T11:43:16;21.80;84.60
42201;DHT22;27869;51.442;7.540;2022-07-15T11:46:02;21.80;86.20
42201;DHT22;27869;51.442;7.540;2022-07-15T11:48:35;21.60;85.20
42201;DHT22;27869;51.442;7.540;2022-07-15T11:51:03;21.50;84.60
42201;DHT22;27869;51.442;7.540;2022-07-15T11:53:35;21.50;85.90
42201;DHT22;27869;51.442;7.540;2022-07-15T11:56:05;21.50;85.20
42201;DHT22;27869;51.442;7.540;2022-07-15T11:58:34;21.40;84.90
42201;DHT22;27869;51.442;7.540;2022-07-15T12:01:05;21.50;84.90
42201;DHT22;27869;51.442;7.540;2022-07-15T12:03:38;21.40;84.90
42201;DHT22;27869;51.442;7.540;2022-07-15T12:06:12;21.50;85.30
42201;DHT22;27869;51.442;7.540;2022-07-15T12:08:45;21.50;85.10
42201;DHT22;27869;51.442;7.540;2022-07-15T12:11:20;21.60;84.40
42201;DHT22;27869;51.442;7.540;2022-07-15T12:13:50;21.50;85.20
42201;DHT22;27869;51.442;7.540;2022-07-15T12:16:21;21.60;85.30
42201;DHT22;27869;51.442;7.540;2022-07-15T12:18:48;21.50;86.00
42201;DHT22;27869;51.442;7.540;2022-07-15T12:21:16;21.50;85.20
42201;DHT22;27869;51.442;7.540;2022-07-15T12:24:01;21.60;85.40
42201;DHT22;27869;51.442;7.540;2022-07-15T12:26:30;21.60;82.60
42201;DHT22;27869;51.442;7.540;2022-07-15T12:29:00;21.60;82.90
42201;DHT22;27869;51.442;7.540;2022-07-15T12:31:32;21.70;83.00
42201;DHT22;27869;51.442;7.540;2022-07-15T12:33:59;21.70;82.50
42201;DHT22;27869;51.442;7.540;2022-07-15T12:36:28;21.80;82.50
42201;DHT22;27869;51.442;7.540;2022-07-15T12:39:12;21.80;82.80
42201;DHT22;27869;51.442;7.540;2022-07-15T12:41:42;21.70;81.30
42201;DHT22;27869;51.442;7.540;2022-07-15T12:44:10;21.60;82.70
42201;DHT22;27869;51.442;7.540;2022-07-15T12:46:54;21.60;82.80
42201;DHT22;27869;51.442;7.540;2022-07-15T12:49:46;21.50;82.70
42201;DHT22;27869;51.442;7.540;2022-07-15T12:52:31;21.50;81.50
42201;DHT22;27869;51.442;7.540;2022-07-15T12:55:07;21.50;84.40
42201;DHT22;27869;51.442;7.540;2022-07-15T12:57:38;21.60;83.70
42201;DHT22;27869;51.442;7.540;2022-07-15T13:00:11;21.60;84.60
42201;DHT22;27869;51.442;7.540;2022-07-15T13:03:01;21.60;84.20
42201;DHT22;27869;51.442;7.540;2022-07-15T13:05:31;21.50;83.20
42201;DHT22;27869;51.442;7.540;2022-07-15T13:07:58;21.40;84.10
42201;DHT22;27869;51.442;7.540;2022-07-15T13:10:28;21.30;84.70
42201;DHT22;27869;51.442;7.540;2022-07-15T13:12:57;21.20;85.00
42201;DHT22;27869;51.442;7.540;2022-07-15T13:15:24;21.20;84.00
42201;DHT22;27869;51.442;7.540;2022-07-15T13:17:52;21.10;82.20
42201;DHT22;27869;51.442;7.540;2022-07-15T13:20:19;21.10;84.20
42201;DHT22;27869;51.442;7.540;2022-07-15T13:22:46;21.20;85.90
42201;DHT22;27869;51.442;7.540;2022-07-15T13:25:13;21.20;83.60
42201;DHT22;27869;51.442;7.540;2022-07-15T13:27:40;21.30;83.50
42201;DHT22;27869;51.442;7.540;2022-07-15T13:30:09;21.30;83.60
42201;DHT22;27869;51.442;7.540;2022-07-15T13:32:37;21.30;83.70
42201;DHT22;27869;51.442;7.540;2022-07-15T13:35:04;21.40;83.60
42201;DHT22;27869;51.442;7.540;2022-07-15T13:37:32;21.40;83.60
42201;DHT22;27869;51.442;7.540;2022-07-15T13:39:58;21.50;83.40
42201;DHT22;27869;51.442;7.540;2022-07-15T13:42:26;21.60;83.90
42201;DHT22;27869;51.442;7.540;2022-07-15T13:44:54;21.60;82.10
42201;DHT22;27869;51.442;7.540;2022-07-15T13:47:23;21.60;84.50
42201;DHT22;27869;51.442;7.540;2022-07-15T13:49:50;21.60;81.60
42201;DHT22;27869;51.442;7.540;2022-07-15T13:52:48;21.60;81.30
42201;DHT22;27869;51.442;7.540;2022-07-15T13:55:17;21.60;80.90
42201;DHT22;27869;51.442;7.540;2022-07-15T13:57:44;21.60;79.60
42201;DHT22;27869;51.442;7.540;2022-07-15T14:00:15;21.70;80.70
42201;DHT22;27869;51.442;7.540;2022-07-15T14:02:44;21.70;80.70
42201;DHT22;27869;51.442;7.540;2022-07-15T14:05:12;21.80;80.60
42201;DHT22;27869;51.442;7.540;2022-07-15T14:07:38;21.80;75.80
42201;DHT22;27869;51.442;7.540;2022-07-15T14:10:06;21.80;76.20
42201;DHT22;27869;51.442;7.540;2022-07-15T14:12:34;21.70;79.20
42201;DHT22;27869;51.442;7.540;2022-07-15T14:15:01;21.70;78.50
42201;DHT22;27869;51.442;7.540;2022-07-15T14:17:28;21.70;79.90
42201;DHT22;27869;51.442;7.540;2022-07-15T14:19:56;21.70;79.90
42201;DHT22;27869;51.442;7.540;2022-07-15T14:22:24;21.60;78.60
42201;DHT22;27869;51.442;7.540;2022-07-15T14:24:51;21.60;80.50
42201;DHT22;27869;51.442;7.540;2022-07-15T14:27:18;21.60;79.70
42201;DHT22;27869;51.442;7.540;2022-07-15T14:29:46;21.70;78.50
42201;DHT22;27869;51.442;7.540;2022-07-15T14:32:13;21.70;78.00
42201;DHT22;27869;51.442;7.540;2022-07-15T14:34:40;21.70;77.20
42201;DHT22;27869;51.442;7.540;2022-07-15T14:37:08;21.70;76.60
42201;DHT22;27869;51.442;7.540;2022-07-15T14:39:35;21.70;77.10
42201;DHT22;27869;51.442;7.540;2022-07-15T14:42:02;21.60;76.30
42201;DHT22;27869;51.442;7.540;2022-07-15T14:44:29;21.60;76.60
42201;DHT22;27869;51.442;7.540;2022-07-15T14:46:56;21.60;77.10
42201;DHT22;27869;51.442;7.540;2022-07-15T14:49:23;21.60;76.00
42201;DHT22;27869;51.442;7.540;2022-07-15T14:51:50;21.60;75.80
42201;DHT22;27869;51.442;7.540;2022-07-15T14:54:18;21.60;75.40
42201;DHT22;27869;51.442;7.540;2022-07-15T14:56:45;21.60;75.00
42201;DHT22;27869;51.442;7.540;2022-07-15T14:59:12;21.70;75.30
42201;DHT22;27869;51.442;7.540;2022-07-15T15:01:39;21.70;75.60
42201;DHT22;27869;51.442;7.540;2022-07-15T15:04:06;21.70;75.10
42201;DHT22;27869;51.442;7.540;2022-07-15T15:06:33;21.70;75.20
42201;DHT22;27869;51.442;7.540;2022-07-15T15:09:00;21.70;74.80
42201;DHT22;27869;51.442;7.540;2022-07-15T15:11:28;21.80;75.30
42201;DHT22;27869;51.442;7.540;2022-07-15T15:13:55;21.80;75.60
42201;DHT22;27869;51.442;7.540;2022-07-15T15:16:22;21.80;76.10
42201;DHT22;27869;51.442;7.540;2022-07-15T15:18:49;21.80;75.70
42201;DHT22;27869;51.442;7.540;2022-07-15T15:21:16;21.90;75.90
42201;DHT22;27869;51.442;7.540;2022-07-15T15:23:43;21.90;75.10
42201;DHT22;27869;51.442;7.540;2022-07-15T15:26:09;22.00;73.90
42201;DHT22;27869;51.442;7.540;2022-07-15T15:28:50;22.10;73.80
42201;DHT22;27869;51.442;7.540;2022-07-15T15:31:17;22.10;72.30
42201;DHT22;27869;51.442;7.540;2022-07-15T15:33:57;22.10;71.60
42201;DHT22;27869;51.442;7.540;2022-07-15T15:36:24;22.10;72.70
42201;DHT22;27869;51.442;7.540;2022-07-15T15:38:51;22.10;72.60
42201;DHT22;27869;51.442;7.540;2022-07-15T15:41:18;22.10;72.70
42201;DHT22;27869;51.442;7.540;2022-07-15T15:43:45;22.20;73.40
42201;DHT22;27869;51.442;7.540;2022-07-15T15:46:14;22.20;72.70
42201;DHT22;27869;51.442;7.540;2022-07-15T15:48:40;22.20;72.00
42201;DHT22;27869;51.442;7.540;2022-07-15T15:51:07;22.30;72.90